sensor_id;sensor_type;location;lat;lon;timestamp;P1;durP1;ratioP1;P2;durP2;ratioP2
3991;SDS011;2010;48.194;16.394;2022-09-30T00:00:06;6.43;;;4.80;;
3991;SDS011;2010;48.194;16.394;2022-09-30T00:02:41;4.97;;;4.47;;
3991;SDS011;2010;48.194;16.394;2022-09-30T00:05:09;5.83;;;4.93;;
3991;SDS011;2010;48.194;16.394;2022-09-30T00:07:39;6.57;;;4.53;;
3991;SDS011;2010;48.194;16.394;2022-09-30T00:10:11;7.97;;;4.87;;
3991;SDS011;2010;48.194;16.394;2022-09-30T00:12:42;7.87;;;6.53;;
3991;SDS011;2010;48.194;16.394;2022-09-30T00:15:10;6.83;;;4.23;;
3991;SDS011;2010;48.194;16.394;2022-09-30T00:17:45;8.23;;;5.70;;
3991;SDS011;2010;48.194;16.394;2022-09-30T00:20:22;6.60;;;4.57;;
3991;SDS011;2010;48.194;16.394;2022-09-30T00:22:54;5.10;;;4.40;;
3991;SDS011;2010;48.194;16.394;2022-09-30T00:25:24;6.40;;;5.80;;
3991;SDS011;2010;48.194;16.394;2022-09-30T00:27:54;6.10;;;5.60;;
3991;SDS011;2010;48.194;16.394;2022-09-30T00:30:23;7.03;;;5.30;;
3991;SDS011;2010;48.194;16.394;2022-09-30T00:32:55;8.40;;;5.70;;
3991;SDS011;2010;48.194;16.394;2022-09-30T00:35:25;5.77;;;5.10;;
3991;SDS011;2010;48.194;16.394;2022-09-30T00:37:54;5.83;;;5.23;;
3991;SDS011;2010;48.194;16.394;2022-09-30T00:40:22;5.43;;;4.93;;
3991;SDS011;2010;48.194;16.394;2022-09-30T00:42:52;5.50;;;5.00;;
3991;SDS011;2010;48.194;16.394;2022-09-30T00:45:24;5.33;;;4.70;;
3991;SDS011;2010;48.194;16.394;2022-09-30T00:48:06;5.30;;;4.80;;
3991;SDS011;2010;48.194;16.394;2022-09-30T00:50:38;5.67;;;5.20;;
3991;SDS011;2010;48.194;16.394;2022-09-30T00:53:23;7.30;;;4.63;;
3991;SDS011;2010;48.194;16.394;2022-09-30T00:56:00;5.27;;;4.80;;
3991;SDS011;2010;48.194;16.394;2022-09-30T00:58:33;6.33;;;5.37;;
3991;SDS011;2010;48.194;16.394;2022-09-30T01:01:09;6.67;;;5.37;;
3991;SDS011;2010;48.194;16.394;2022-09-30T01:03:43;5.87;;;5.27;;
3991;SDS011;2010;48.194;16.394;2022-09-30T01:06:16;9.20;;;5.10;;
3991;SDS011;2010;48.194;16.394;2022-09-30T01:08:49;5.70;;;5.20;;
3991;SDS011;2010;48.194;16.394;2022-09-30T01:11:19;7.40;;;4.87;;
3991;SDS011;2010;48.194;16.394;2022-09-30T01:13:52;5.87;;;5.30;;
3991;SDS011;2010;48.194;16.394;2022-09-30T01:16:38;5.00;;;4.50;;
3991;SDS011;2010;48.194;16.394;2022-09-30T01:19:41;5.63;;;5.03;;
3991;SDS011;2010;48.194;16.394;2022-09-30T01:22:30;5.27;;;4.80;;
3991;SDS011;2010;48.194;16.394;2022-09-30T01:31:21;5.57;;;5.07;;
3991;SDS011;2010;48.194;16.394;2022-09-30T01:34:00;6.40;;;5.10;;
3991;SDS011;2010;48.194;16.394;2022-09-30T01:36:43;4.90;;;4.40;;
3991;SDS011;2010;48.194;16.394;2022-09-30T01:39:25;5.30;;;4.80;;
3991;SDS011;2010;48.194;16.394;2022-09-30T01:42:02;7.47;;;5.20;;
3991;SDS011;2010;48.194;16.394;2022-09-30T01:44:44;5.37;;;4.87;;
3991;SDS011;2010;48.194;16.394;2022-09-30T01:47:26;6.90;;;6.00;;
3991;SDS011;2010;48.194;16.394;2022-09-30T01:49:59;5.97;;;4.90;;
3991;SDS011;2010;48.194;16.394;2022-09-30T01:52:37;5.93;;;5.37;;
3991;SDS011;2010;48.194;16.394;2022-09-30T01:55:12;7.00;;;5.40;;
3991;SDS011;2010;48.194;16.394;2022-09-30T01:57:46;5.70;;;5.20;;
3991;SDS011;2010;48.194;16.394;2022-09-30T02:00:19;6.07;;;5.27;;
3991;SDS011;2010;48.194;16.394;2022-09-30T02:02:52;5.80;;;5.27;;
3991;SDS011;2010;48.194;16.394;2022-09-30T02:05:25;5.73;;;5.20;;
3991;SDS011;2010;48.194;16.394;2022-09-30T02:07:59;7.90;;;4.80;;
3991;SDS011;2010;48.194;16.394;2022-09-30T02:10:31;5.33;;;4.87;;
3991;SDS011;2010;48.194;16.394;2022-09-30T02:13:03;6.37;;;5.77;;
3991;SDS011;2010;48.194;16.394;2022-09-30T02:15:40;8.77;;;5.80;;
3991;SDS011;2010;48.194;16.394;2022-09-30T02:18:16;6.20;;;5.70;;
3991;SDS011;2010;48.194;16.394;2022-09-30T02:20:51;6.27;;;5.70;;
3991;SDS011;2010;48.194;16.394;2022-09-30T02:23:25;6.10;;;5.50;;
3991;SDS011;2010;48.194;16.394;2022-09-30T02:25:57;7.67;;;6.17;;
3991;SDS011;2010;48.194;16.394;2022-09-30T02:28:37;6.70;;;5.80;;
3991;SDS011;2010;48.194;16.394;2022-09-30T02:31:17;5.90;;;5.40;;
3991;SDS011;2010;48.194;16.394;2022-09-30T02:33:55;7.30;;;5.90;;
3991;SDS011;2010;48.194;16.394;2022-09-30T02:36:31;6.97;;;6.27;;
3991;SDS011;2010;48.194;16.394;2022-09-30T02:39:03;9.03;;;6.70;;
3991;SDS011;2010;48.194;16.394;2022-09-30T02:41:37;7.07;;;6.13;;
3991;SDS011;2010;48.194;16.394;2022-09-30T02:44:09;7.63;;;6.93;;
3991;SDS011;2010;48.194;16.394;2022-09-30T02:46:41;7.70;;;7.00;;
3991;SDS011;2010;48.194;16.394;2022-09-30T02:49:19;7.10;;;6.40;;
3991;SDS011;2010;48.194;16.394;2022-09-30T02:52:03;6.90;;;6.20;;
3991;SDS011;2010;48.194;16.394;2022-09-30T02:54:40;7.77;;;6.70;;
3991;SDS011;2010;48.194;16.394;2022-09-30T02:57:15;8.10;;;7.30;;
3991;SDS011;2010;48.194;16.394;2022-09-30T02:59:47;7.23;;;6.63;;
3991;SDS011;2010;48.194;16.394;2022-09-30T03:02:34;8.37;;;7.07;;
3991;SDS011;2010;48.194;16.394;2022-09-30T03:05:07;8.03;;;7.33;;
3991;SDS011;2010;48.194;16.394;2022-09-30T03:07:35;8.53;;;7.23;;
3991;SDS011;2010;48.194;16.394;2022-09-30T03:10:11;7.57;;;6.87;;
3991;SDS011;2010;48.194;16.394;2022-09-30T03:12:49;11.63;;;7.70;;
3991;SDS011;2010;48.194;16.394;2022-09-30T03:15:29;8.47;;;7.43;;
3991;SDS011;2010;48.194;16.394;2022-09-30T03:18:10;7.70;;;7.00;;
3991;SDS011;2010;48.194;16.394;2022-09-30T03:20:56;8.93;;;7.70;;
3991;SDS011;2010;48.194;16.394;2022-09-30T03:23:58;12.97;;;9.90;;
3991;SDS011;2010;48.194;16.394;2022-09-30T03:26:53;9.30;;;8.07;;
3991;SDS011;2010;48.194;16.394;2022-09-30T03:29:32;10.10;;;8.33;;
3991;SDS011;2010;48.194;16.394;2022-09-30T03:32:10;10.00;;;8.90;;
3991;SDS011;2010;48.194;16.394;2022-09-30T03:34:51;10.37;;;9.37;;
3991;SDS011;2010;48.194;16.394;2022-09-30T03:37:33;9.30;;;8.33;;
3991;SDS011;2010;48.194;16.394;2022-09-30T03:40:12;10.03;;;9.03;;
3991;SDS011;2010;48.194;16.394;2022-09-30T03:42:46;10.97;;;9.87;;
3991;SDS011;2010;48.194;16.394;2022-09-30T03:45:20;10.27;;;9.17;;
3991;SDS011;2010;48.194;16.394;2022-09-30T03:47:54;12.00;;;9.70;;
3991;SDS011;2010;48.194;16.394;2022-09-30T03:50:30;10.40;;;9.20;;
3991;SDS011;2010;48.194;16.394;2022-09-30T03:53:02;11.13;;;9.33;;
3991;SDS011;2010;48.194;16.394;2022-09-30T03:55:45;10.47;;;9.47;;
3991;SDS011;2010;48.194;16.394;2022-09-30T03:58:18;9.50;;;8.60;;
3991;SDS011;2010;48.194;16.394;2022-09-30T04:00:58;9.53;;;8.53;;
3991;SDS011;2010;48.194;16.394;2022-09-30T04:03:32;10.60;;;9.50;;
3991;SDS011;2010;48.194;16.394;2022-09-30T04:06:02;9.47;;;8.23;;
3991;SDS011;2010;48.194;16.394;2022-09-30T04:08:32;8.83;;;7.93;;
3991;SDS011;2010;48.194;16.394;2022-09-30T04:11:00;8.57;;;7.77;;
3991;SDS011;2010;48.194;16.394;2022-09-30T04:13:32;9.50;;;8.60;;
3991;SDS011;2010;48.194;16.394;2022-09-30T04:16:02;9.03;;;8.20;;
3991;SDS011;2010;48.194;16.394;2022-09-30T04:18:34;9.43;;;8.50;;
3991;SDS011;2010;48.194;16.394;2022-09-30T04:21:04;8.80;;;7.83;;
3991;SDS011;2010;48.194;16.394;2022-09-30T04:23:44;14.30;;;9.17;;
3991;SDS011;2010;48.194;16.394;2022-09-30T04:26:17;11.60;;;7.80;;
3991;SDS011;2010;48.194;16.394;2022-09-30T04:28:47;8.10;;;7.30;;
3991;SDS011;2010;48.194;16.394;2022-09-30T04:31:18;9.63;;;8.73;;
3991;SDS011;2010;48.194;16.394;2022-09-30T04:33:48;9.13;;;7.93;;
3991;SDS011;2010;48.194;16.394;2022-09-30T04:36:18;10.50;;;9.47;;
3991;SDS011;2010;48.194;16.394;2022-09-30T04:38:51;9.23;;;8.43;;
3991;SDS011;2010;48.194;16.394;2022-09-30T04:41:29;10.80;;;9.00;;
3991;SDS011;2010;48.194;16.394;2022-09-30T04:44:05;10.33;;;9.00;;
3991;SDS011;2010;48.194;16.394;2022-09-30T04:46:37;8.83;;;8.03;;
3991;SDS011;2010;48.194;16.394;2022-09-30T04:49:13;9.40;;;8.50;;
3991;SDS011;2010;48.194;16.394;2022-09-30T04:51:48;11.40;;;8.40;;
3991;SDS011;2010;48.194;16.394;2022-09-30T04:54:21;10.70;;;9.60;;
3991;SDS011;2010;48.194;16.394;2022-09-30T04:56:51;12.27;;;9.40;;
3991;SDS011;2010;48.194;16.394;2022-09-30T04:59:21;9.70;;;8.80;;
3991;SDS011;2010;48.194;16.394;2022-09-30T05:01:51;9.63;;;8.63;;
3991;SDS011;2010;48.194;16.394;2022-09-30T05:04:20;10.67;;;9.30;;
3991;SDS011;2010;48.194;16.394;2022-09-30T05:06:53;10.10;;;9.10;;
3991;SDS011;2010;48.194;16.394;2022-09-30T05:09:26;10.17;;;9.07;;
3991;SDS011;2010;48.194;16.394;2022-09-30T05:12:03;12.17;;;9.90;;
3991;SDS011;2010;48.194;16.394;2022-09-30T05:14:31;10.70;;;9.67;;
3991;SDS011;2010;48.194;16.394;2022-09-30T05:17:01;9.63;;;8.73;;
3991;SDS011;2010;48.194;16.394;2022-09-30T05:19:39;12.73;;;9.30;;
3991;SDS011;2010;48.194;16.394;2022-09-30T05:22:08;10.67;;;9.67;;
3991;SDS011;2010;48.194;16.394;2022-09-30T05:24:49;16.67;;;9.80;;
3991;SDS011;2010;48.194;16.394;2022-09-30T05:27:24;11.43;;;10.10;;
3991;SDS011;2010;48.194;16.394;2022-09-30T05:30:00;11.03;;;9.90;;
3991;SDS011;2010;48.194;16.394;2022-09-30T05:32:43;13.47;;;10.40;;
3991;SDS011;2010;48.194;16.394;2022-09-30T05:35:12;12.60;;;10.33;;
3991;SDS011;2010;48.194;16.394;2022-09-30T05:37:49;11.20;;;10.00;;
3991;SDS011;2010;48.194;16.394;2022-09-30T05:40:25;10.73;;;9.73;;
3991;SDS011;2010;48.194;16.394;2022-09-30T05:42:55;10.37;;;9.33;;
3991;SDS011;2010;48.194;16.394;2022-09-30T05:45:28;10.73;;;9.63;;
3991;SDS011;2010;48.194;16.394;2022-09-30T05:48:01;11.70;;;9.57;;
3991;SDS011;2010;48.194;16.394;2022-09-30T05:50:31;11.53;;;10.00;;
3991;SDS011;2010;48.194;16.394;2022-09-30T05:53:01;10.67;;;9.63;;
3991;SDS011;2010;48.194;16.394;2022-09-30T05:55:31;11.43;;;10.23;;
3991;SDS011;2010;48.194;16.394;2022-09-30T05:58:06;11.27;;;10.20;;
3991;SDS011;2010;48.194;16.394;2022-09-30T06:00:38;12.40;;;11.00;;
3991;SDS011;2010;48.194;16.394;2022-09-30T06:03:08;12.30;;;11.03;;
3991;SDS011;2010;48.194;16.394;2022-09-30T06:05:39;11.93;;;10.73;;
3991;SDS011;2010;48.194;16.394;2022-09-30T06:08:19;14.33;;;9.67;;
3991;SDS011;2010;48.194;16.394;2022-09-30T06:10:51;10.77;;;9.53;;
3991;SDS011;2010;48.194;16.394;2022-09-30T06:13:29;10.40;;;8.00;;
3991;SDS011;2010;48.194;16.394;2022-09-30T06:16:02;11.00;;;8.40;;
3991;SDS011;2010;48.194;16.394;2022-09-30T06:18:34;9.83;;;8.80;;
3991;SDS011;2010;48.194;16.394;2022-09-30T06:21:04;13.90;;;8.80;;
3991;SDS011;2010;48.194;16.394;2022-09-30T06:23:37;7.97;;;7.17;;
3991;SDS011;2010;48.194;16.394;2022-09-30T06:26:16;7.30;;;6.60;;
3991;SDS011;2010;48.194;16.394;2022-09-30T06:28:48;6.27;;;5.20;;
3991;SDS011;2010;48.194;16.394;2022-09-30T06:31:17;9.60;;;4.77;;
3991;SDS011;2010;48.194;16.394;2022-09-30T06:34:00;4.30;;;3.90;;
3991;SDS011;2010;48.194;16.394;2022-09-30T06:36:31;4.20;;;3.90;;
3991;SDS011;2010;48.194;16.394;2022-09-30T06:39:01;4.37;;;3.73;;
3991;SDS011;2010;48.194;16.394;2022-09-30T06:41:41;4.07;;;3.23;;
3991;SDS011;2010;48.194;16.394;2022-09-30T06:44:19;5.00;;;3.37;;
3991;SDS011;2010;48.194;16.394;2022-09-30T06:46:52;3.57;;;3.30;;
3991;SDS011;2010;48.194;16.394;2022-09-30T06:49:22;3.37;;;3.17;;
3991;SDS011;2010;48.194;16.394;2022-09-30T06:51:51;3.90;;;3.60;;
3991;SDS011;2010;48.194;16.394;2022-09-30T06:54:23;4.53;;;3.47;;
3991;SDS011;2010;48.194;16.394;2022-09-30T06:57:00;3.97;;;3.67;;
3991;SDS011;2010;48.194;16.394;2022-09-30T06:59:31;4.57;;;4.27;;
3991;SDS011;2010;48.194;16.394;2022-09-30T07:02:01;4.17;;;3.57;;
3991;SDS011;2010;48.194;16.394;2022-09-30T07:04:31;3.77;;;3.47;;
3991;SDS011;2010;48.194;16.394;2022-09-30T07:07:01;4.50;;;4.20;;
3991;SDS011;2010;48.194;16.394;2022-09-30T07:09:44;5.20;;;4.60;;
3991;SDS011;2010;48.194;16.394;2022-09-30T07:12:37;5.30;;;4.80;;
3991;SDS011;2010;48.194;16.394;2022-09-30T07:15:12;4.57;;;4.20;;
3991;SDS011;2010;48.194;16.394;2022-09-30T07:17:48;6.43;;;5.77;;
3991;SDS011;2010;48.194;16.394;2022-09-30T07:20:21;5.70;;;5.20;;
3991;SDS011;2010;48.194;16.394;2022-09-30T07:22:57;6.03;;;5.60;;
3991;SDS011;2010;48.194;16.394;2022-09-30T07:25:34;6.00;;;5.40;;
3991;SDS011;2010;48.194;16.394;2022-09-30T07:28:04;6.23;;;5.73;;
3991;SDS011;2010;48.194;16.394;2022-09-30T07:30:36;7.07;;;6.37;;
3991;SDS011;2010;48.194;16.394;2022-09-30T07:33:10;7.93;;;7.23;;
3991;SDS011;2010;48.194;16.394;2022-09-30T07:35:50;8.40;;;7.63;;
3991;SDS011;2010;48.194;16.394;2022-09-30T07:38:19;6.50;;;6.00;;
3991;SDS011;2010;48.194;16.394;2022-09-30T07:40:54;7.40;;;6.80;;
3991;SDS011;2010;48.194;16.394;2022-09-30T07:43:29;9.83;;;8.07;;
3991;SDS011;2010;48.194;16.394;2022-09-30T07:46:06;8.70;;;8.00;;
3991;SDS011;2010;48.194;16.394;2022-09-30T07:48:44;10.10;;;8.73;;
3991;SDS011;2010;48.194;16.394;2022-09-30T07:51:19;9.10;;;8.30;;
3991;SDS011;2010;48.194;16.394;2022-09-30T07:53:50;9.90;;;8.90;;
3991;SDS011;2010;48.194;16.394;2022-09-30T07:56:24;9.70;;;8.90;;
3991;SDS011;2010;48.194;16.394;2022-09-30T07:59:31;9.90;;;9.00;;
3991;SDS011;2010;48.194;16.394;2022-09-30T08:02:09;9.40;;;8.47;;
3991;SDS011;2010;48.194;16.394;2022-09-30T08:04:44;11.63;;;9.03;;
3991;SDS011;2010;48.194;16.394;2022-09-30T08:07:17;11.97;;;9.10;;
3991;SDS011;2010;48.194;16.394;2022-09-30T08:09:53;11.17;;;9.90;;
3991;SDS011;2010;48.194;16.394;2022-09-30T08:12:24;10.60;;;9.50;;
3991;SDS011;2010;48.194;16.394;2022-09-30T08:15:00;11.43;;;10.43;;
3991;SDS011;2010;48.194;16.394;2022-09-30T08:17:31;12.27;;;10.70;;
3991;SDS011;2010;48.194;16.394;2022-09-30T08:20:01;11.50;;;10.33;;
3991;SDS011;2010;48.194;16.394;2022-09-30T08:22:43;12.33;;;11.13;;
3991;SDS011;2010;48.194;16.394;2022-09-30T08:25:14;13.37;;;11.23;;
3991;SDS011;2010;48.194;16.394;2022-09-30T08:27:43;12.93;;;11.60;;
3991;SDS011;2010;48.194;16.394;2022-09-30T08:30:18;11.70;;;10.50;;
3991;SDS011;2010;48.194;16.394;2022-09-30T08:32:52;13.57;;;11.23;;
3991;SDS011;2010;48.194;16.394;2022-09-30T08:35:27;12.73;;;11.53;;
3991;SDS011;2010;48.194;16.394;2022-09-30T08:38:01;11.73;;;10.63;;
3991;SDS011;2010;48.194;16.394;2022-09-30T08:40:43;14.83;;;13.20;;
3991;SDS011;2010;48.194;16.394;2022-09-30T08:43:25;12.60;;;11.33;;
3991;SDS011;2010;48.194;16.394;2022-09-30T08:46:10;13.63;;;12.10;;
3991;SDS011;2010;48.194;16.394;2022-09-30T08:48:47;11.90;;;10.70;;
3991;SDS011;2010;48.194;16.394;2022-09-30T08:51:29;11.87;;;10.67;;
3991;SDS011;2010;48.194;16.394;2022-09-30T08:54:04;11.93;;;10.87;;
3991;SDS011;2010;48.194;16.394;2022-09-30T08:56:38;12.00;;;10.93;;
3991;SDS011;2010;48.194;16.394;2022-09-30T08:59:07;12.20;;;11.10;;
3991;SDS011;2010;48.194;16.394;2022-09-30T09:01:50;12.03;;;10.73;;
3991;SDS011;2010;48.194;16.394;2022-09-30T09:04:22;11.60;;;10.40;;
3991;SDS011;2010;48.194;16.394;2022-09-30T09:06:57;13.00;;;10.87;;
3991;SDS011;2010;48.194;16.394;2022-09-30T09:09:39;12.30;;;10.07;;
3991;SDS011;2010;48.194;16.394;2022-09-30T09:12:26;13.00;;;9.97;;
3991;SDS011;2010;48.194;16.394;2022-09-30T09:15:03;13.50;;;9.73;;
3991;SDS011;2010;48.194;16.394;2022-09-30T09:17:50;13.57;;;10.17;;
3991;SDS011;2010;48.194;16.394;2022-09-30T09:20:52;9.80;;;8.77;;
3991;SDS011;2010;48.194;16.394;2022-09-30T09:23:29;11.53;;;10.33;;
3991;SDS011;2010;48.194;16.394;2022-09-30T09:26:03;10.03;;;9.13;;
3991;SDS011;2010;48.194;16.394;2022-09-30T09:28:33;10.63;;;9.53;;
3991;SDS011;2010;48.194;16.394;2022-09-30T09:31:07;10.53;;;9.33;;
3991;SDS011;2010;48.194;16.394;2022-09-30T09:33:53;9.50;;;8.60;;
3991;SDS011;2010;48.194;16.394;2022-09-30T09:36:37;13.53;;;9.40;;
3991;SDS011;2010;48.194;16.394;2022-09-30T09:39:20;12.27;;;9.30;;
3991;SDS011;2010;48.194;16.394;2022-09-30T09:42:32;9.87;;;9.03;;
3991;SDS011;2010;48.194;16.394;2022-09-30T09:45:33;8.13;;;7.43;;
3991;SDS011;2010;48.194;16.394;2022-09-30T09:48:06;9.77;;;8.10;;
3991;SDS011;2010;48.194;16.394;2022-09-30T09:50:50;8.67;;;7.87;;
3991;SDS011;2010;48.194;16.394;2022-09-30T09:56:23;8.10;;;7.43;;
3991;SDS011;2010;48.194;16.394;2022-09-30T09:59:12;8.50;;;7.67;;
3991;SDS011;2010;48.194;16.394;2022-09-30T10:01:46;7.80;;;6.97;;
3991;SDS011;2010;48.194;16.394;2022-09-30T10:04:18;8.27;;;7.20;;
3991;SDS011;2010;48.194;16.394;2022-09-30T10:06:55;8.10;;;7.40;;
3991;SDS011;2010;48.194;16.394;2022-09-30T10:09:31;9.30;;;7.10;;
3991;SDS011;2010;48.194;16.394;2022-09-30T10:15:18;8.10;;;7.40;;
3991;SDS011;2010;48.194;16.394;2022-09-30T10:18:15;8.33;;;7.60;;
3991;SDS011;2010;48.194;16.394;2022-09-30T10:20:54;8.97;;;7.93;;
3991;SDS011;2010;48.194;16.394;2022-09-30T10:23:40;8.30;;;7.30;;
3991;SDS011;2010;48.194;16.394;2022-09-30T10:26:15;8.10;;;7.30;;
3991;SDS011;2010;48.194;16.394;2022-09-30T10:28:56;8.60;;;7.90;;
3991;SDS011;2010;48.194;16.394;2022-09-30T10:31:28;7.83;;;7.13;;
3991;SDS011;2010;48.194;16.394;2022-09-30T10:34:08;8.10;;;7.23;;
3991;SDS011;2010;48.194;16.394;2022-09-30T10:36:42;8.47;;;7.67;;
3991;SDS011;2010;48.194;16.394;2022-09-30T10:39:18;8.10;;;7.30;;
3991;SDS011;2010;48.194;16.394;2022-09-30T10:44:32;9.63;;;8.67;;
3991;SDS011;2010;48.194;16.394;2022-09-30T10:47:08;10.87;;;9.23;;
3991;SDS011;2010;48.194;16.394;2022-09-30T10:49:44;10.13;;;8.93;;
3991;SDS011;2010;48.194;16.394;2022-09-30T10:52:21;10.80;;;9.80;;
3991;SDS011;2010;48.194;16.394;2022-09-30T10:54:55;8.57;;;7.83;;
3991;SDS011;2010;48.194;16.394;2022-09-30T10:57:38;10.30;;;8.77;;
3991;SDS011;2010;48.194;16.394;2022-09-30T11:00:07;9.73;;;7.97;;
3991;SDS011;2010;48.194;16.394;2022-09-30T11:02:45;9.37;;;8.43;;
3991;SDS011;2010;48.194;16.394;2022-09-30T11:05:21;10.13;;;8.33;;
3991;SDS011;2010;48.194;16.394;2022-09-30T11:07:55;11.03;;;7.93;;
3991;SDS011;2010;48.194;16.394;2022-09-30T11:10:35;11.40;;;7.83;;
3991;SDS011;2010;48.194;16.394;2022-09-30T11:13:24;10.20;;;9.07;;
3991;SDS011;2010;48.194;16.394;2022-09-30T11:15:59;10.60;;;8.97;;
3991;SDS011;2010;48.194;16.394;2022-09-30T11:18:40;8.73;;;7.93;;
3991;SDS011;2010;48.194;16.394;2022-09-30T11:21:11;9.33;;;8.43;;
3991;SDS011;2010;48.194;16.394;2022-09-30T11:23:49;8.57;;;7.83;;
3991;SDS011;2010;48.194;16.394;2022-09-30T11:26:33;8.57;;;7.80;;
3991;SDS011;2010;48.194;16.394;2022-09-30T11:32:33;9.23;;;6.70;;
3991;SDS011;2010;48.194;16.394;2022-09-30T11:35:37;7.80;;;6.53;;
3991;SDS011;2010;48.194;16.394;2022-09-30T11:38:45;6.87;;;6.27;;
3991;SDS011;2010;48.194;16.394;2022-09-30T11:41:28;8.17;;;7.20;;
3991;SDS011;2010;48.194;16.394;2022-09-30T11:44:05;6.60;;;6.00;;
3991;SDS011;2010;48.194;16.394;2022-09-30T11:46:51;7.10;;;5.80;;
3991;SDS011;2010;48.194;16.394;2022-09-30T11:49:47;7.57;;;6.53;;
3991;SDS011;2010;48.194;16.394;2022-09-30T11:52:54;7.20;;;6.50;;
3991;SDS011;2010;48.194;16.394;2022-09-30T11:55:31;9.63;;;5.20;;
3991;SDS011;2010;48.194;16.394;2022-09-30T11:58:15;5.70;;;5.20;;
3991;SDS011;2010;48.194;16.394;2022-09-30T12:01:11;6.90;;;6.03;;
3991;SDS011;2010;48.194;16.394;2022-09-30T12:03:50;9.23;;;6.50;;
3991;SDS011;2010;48.194;16.394;2022-09-30T12:06:30;7.87;;;6.13;;
3991;SDS011;2010;48.194;16.394;2022-09-30T12:09:11;8.13;;;5.50;;
3991;SDS011;2010;48.194;16.394;2022-09-30T12:11:45;6.30;;;5.70;;
3991;SDS011;2010;48.194;16.394;2022-09-30T12:14:24;7.50;;;5.07;;
3991;SDS011;2010;48.194;16.394;2022-09-30T12:17:00;6.37;;;5.87;;
3991;SDS011;2010;48.194;16.394;2022-09-30T12:19:34;5.60;;;5.10;;
3991;SDS011;2010;48.194;16.394;2022-09-30T12:22:10;6.50;;;5.73;;
3991;SDS011;2010;48.194;16.394;2022-09-30T12:24:42;6.90;;;5.60;;
3991;SDS011;2010;48.194;16.394;2022-09-30T12:27:26;4.17;;;3.77;;
3991;SDS011;2010;48.194;16.394;2022-09-30T12:30:09;4.87;;;4.50;;
3991;SDS011;2010;48.194;16.394;2022-09-30T12:36:04;3.33;;;2.63;;
3991;SDS011;2010;48.194;16.394;2022-09-30T12:39:16;2.80;;;2.67;;
3991;SDS011;2010;48.194;16.394;2022-09-30T12:42:21;3.60;;;3.30;;
3991;SDS011;2010;48.194;16.394;2022-09-30T12:48:18;4.67;;;2.83;;
3991;SDS011;2010;48.194;16.394;2022-09-30T12:50:50;2.97;;;2.23;;
3991;SDS011;2010;48.194;16.394;2022-09-30T12:53:24;2.37;;;2.20;;
3991;SDS011;2010;48.194;16.394;2022-09-30T12:56:00;3.10;;;2.80;;
3991;SDS011;2010;48.194;16.394;2022-09-30T12:58:31;2.40;;;2.20;;
3991;SDS011;2010;48.194;16.394;2022-09-30T13:01:13;2.30;;;2.13;;
3991;SDS011;2010;48.194;16.394;2022-09-30T13:04:08;2.53;;;2.30;;
3991;SDS011;2010;48.194;16.394;2022-09-30T13:09:57;3.10;;;2.50;;
3991;SDS011;2010;48.194;16.394;2022-09-30T13:12:39;2.00;;;1.90;;
3991;SDS011;2010;48.194;16.394;2022-09-30T13:15:26;1.50;;;1.40;;
3991;SDS011;2010;48.194;16.394;2022-09-30T13:21:34;2.27;;;2.10;;
3991;SDS011;2010;48.194;16.394;2022-09-30T13:24:05;1.87;;;1.77;;
3991;SDS011;2010;48.194;16.394;2022-09-30T13:29:35;3.13;;;2.27;;
3991;SDS011;2010;48.194;16.394;2022-09-30T13:32:08;2.97;;;2.77;;
3991;SDS011;2010;48.194;16.394;2022-09-30T13:34:56;3.40;;;2.13;;
3991;SDS011;2010;48.194;16.394;2022-09-30T13:37:40;1.73;;;1.63;;
3991;SDS011;2010;48.194;16.394;2022-09-30T13:40:15;2.57;;;2.37;;
3991;SDS011;2010;48.194;16.394;2022-09-30T13:43:12;2.13;;;2.03;;
3991;SDS011;2010;48.194;16.394;2022-09-30T13:45:48;2.90;;;2.23;;
3991;SDS011;2010;48.194;16.394;2022-09-30T13:48:22;2.90;;;2.70;;
3991;SDS011;2010;48.194;16.394;2022-09-30T13:50:57;2.13;;;1.77;;
3991;SDS011;2010;48.194;16.394;2022-09-30T13:53:31;1.53;;;1.50;;
3991;SDS011;2010;48.194;16.394;2022-09-30T13:56:05;2.17;;;2.00;;
3991;SDS011;2010;48.194;16.394;2022-09-30T14:01:56;1.90;;;1.80;;
3991;SDS011;2010;48.194;16.394;2022-09-30T14:07:48;1.70;;;1.60;;
3991;SDS011;2010;48.194;16.394;2022-09-30T14:10:41;2.43;;;2.23;;
3991;SDS011;2010;48.194;16.394;2022-09-30T14:13:27;1.83;;;1.73;;
3991;SDS011;2010;48.194;16.394;2022-09-30T14:16:16;1.77;;;1.67;;
3991;SDS011;2010;48.194;16.394;2022-09-30T14:19:37;2.43;;;2.23;;
3991;SDS011;2010;48.194;16.394;2022-09-30T14:22:14;2.37;;;2.17;;
3991;SDS011;2010;48.194;16.394;2022-09-30T14:24:46;1.50;;;1.40;;
3991;SDS011;2010;48.194;16.394;2022-09-30T14:27:26;1.43;;;1.33;;
3991;SDS011;2010;48.194;16.394;2022-09-30T14:30:12;1.53;;;1.43;;
3991;SDS011;2010;48.194;16.394;2022-09-30T14:32:52;2.47;;;1.70;;
3991;SDS011;2010;48.194;16.394;2022-09-30T14:35:22;1.33;;;1.23;;
3991;SDS011;2010;48.194;16.394;2022-09-30T14:37:56;1.47;;;1.37;;
3991;SDS011;2010;48.194;16.394;2022-09-30T14:40:27;1.70;;;1.60;;
3991;SDS011;2010;48.194;16.394;2022-09-30T14:43:02;2.30;;;2.20;;
3991;SDS011;2010;48.194;16.394;2022-09-30T14:45:34;1.90;;;1.80;;
3991;SDS011;2010;48.194;16.394;2022-09-30T14:48:10;1.70;;;1.60;;
3991;SDS011;2010;48.194;16.394;2022-09-30T14:50:45;1.37;;;1.37;;
3991;SDS011;2010;48.194;16.394;2022-09-30T14:53:24;2.97;;;2.10;;
3991;SDS011;2010;48.194;16.394;2022-09-30T14:55:59;1.80;;;1.70;;
3991;SDS011;2010;48.194;16.394;2022-09-30T14:58:39;2.73;;;1.90;;
3991;SDS011;2010;48.194;16.394;2022-09-30T15:01:10;2.10;;;1.90;;
3991;SDS011;2010;48.194;16.394;2022-09-30T15:03:46;1.83;;;1.73;;
3991;SDS011;2010;48.194;16.394;2022-09-30T15:06:17;1.90;;;1.40;;
3991;SDS011;2010;48.194;16.394;2022-09-30T15:09:00;1.33;;;1.30;;
3991;SDS011;2010;48.194;16.394;2022-09-30T15:11:40;1.20;;;1.20;;
3991;SDS011;2010;48.194;16.394;2022-09-30T15:14:12;1.50;;;1.40;;
3991;SDS011;2010;48.194;16.394;2022-09-30T15:16:44;2.30;;;1.40;;
3991;SDS011;2010;48.194;16.394;2022-09-30T15:19:20;1.63;;;1.53;;
3991;SDS011;2010;48.194;16.394;2022-09-30T15:21:54;3.07;;;1.67;;
3991;SDS011;2010;48.194;16.394;2022-09-30T15:24:27;1.87;;;1.77;;
3991;SDS011;2010;48.194;16.394;2022-09-30T15:26:58;1.63;;;1.53;;
3991;SDS011;2010;48.194;16.394;2022-09-30T15:29:54;1.93;;;1.83;;
3991;SDS011;2010;48.194;16.394;2022-09-30T15:32:25;1.90;;;1.80;;
3991;SDS011;2010;48.194;16.394;2022-09-30T15:34:54;1.67;;;1.57;;
3991;SDS011;2010;48.194;16.394;2022-09-30T15:37:26;2.83;;;1.53;;
3991;SDS011;2010;48.194;16.394;2022-09-30T15:40:03;2.40;;;1.50;;
3991;SDS011;2010;48.194;16.394;2022-09-30T15:43:00;1.50;;;1.20;;
3991;SDS011;2010;48.194;16.394;2022-09-30T15:45:35;1.87;;;1.77;;
3991;SDS011;2010;48.194;16.394;2022-09-30T16:00:31;2.47;;;2.10;;
3991;SDS011;2010;48.194;16.394;2022-09-30T16:06:07;3.00;;;2.10;;
3991;SDS011;2010;48.194;16.394;2022-09-30T16:08:44;2.53;;;2.33;;
3991;SDS011;2010;48.194;16.394;2022-09-30T16:11:17;3.30;;;3.00;;
3991;SDS011;2010;48.194;16.394;2022-09-30T16:14:02;2.40;;;2.20;;
3991;SDS011;2010;48.194;16.394;2022-09-30T16:16:39;2.83;;;2.63;;
3991;SDS011;2010;48.194;16.394;2022-09-30T16:19:25;4.40;;;2.70;;
3991;SDS011;2010;48.194;16.394;2022-09-30T16:22:03;4.20;;;2.70;;
3991;SDS011;2010;48.194;16.394;2022-09-30T16:24:44;2.47;;;2.37;;
3991;SDS011;2010;48.194;16.394;2022-09-30T16:27:24;2.77;;;2.57;;
3991;SDS011;2010;48.194;16.394;2022-09-30T16:30:17;2.30;;;1.90;;
3991;SDS011;2010;48.194;16.394;2022-09-30T16:32:57;2.77;;;2.47;;
3991;SDS011;2010;48.194;16.394;2022-09-30T16:35:34;2.40;;;2.20;;
3991;SDS011;2010;48.194;16.394;2022-09-30T16:38:06;2.03;;;1.93;;
3991;SDS011;2010;48.194;16.394;2022-09-30T16:40:38;2.30;;;2.20;;
3991;SDS011;2010;48.194;16.394;2022-09-30T16:43:09;2.53;;;2.33;;
3991;SDS011;2010;48.194;16.394;2022-09-30T16:45:42;2.33;;;2.23;;
3991;SDS011;2010;48.194;16.394;2022-09-30T16:48:16;2.67;;;2.23;;
3991;SDS011;2010;48.194;16.394;2022-09-30T16:50:52;1.87;;;1.70;;